createdAt,value
2018-07-13T18:18:48.241Z,9.00
2018-07-13T18:21:16.606Z,9.00
2018-07-13T18:23:44.887Z,9.18
2018-07-13T18:26:13.191Z,8.68
2018-07-13T18:28:41.451Z,8.78
2018-07-13T18:31:09.703Z,8.93
2018-07-13T18:33:38.105Z,7.53
2018-07-13T18:36:06.384Z,8.60
2018-07-13T18:38:34.686Z,7.62
2018-07-13T18:41:03.543Z,8.05
2018-07-13T18:43:31.925Z,8.00
2018-07-13T18:46:00.444Z,7.78
2018-07-13T18:48:28.981Z,8.13
2018-07-13T18:50:57.272Z,7.95
2018-07-13T18:53:25.538Z,7.60
2018-07-13T18:55:53.879Z,7.70
2018-07-13T18:58:22.170Z,7.15
2018-07-13T19:00:50.481Z,7.65
2018-07-13T19:03:19.682Z,7.65
2018-07-13T19:05:48.046Z,7.03
2018-07-13T19:08:17.998Z,7.22
2018-07-13T19:10:46.558Z,7.10
2018-07-13T19:13:14.994Z,6.87
2018-07-13T19:15:43.304Z,6.87
2018-07-13T19:18:11.882Z,6.92
2018-07-13T19:20:40.151Z,6.78
2018-07-13T19:23:08.427Z,6.53
2018-07-13T19:25:37.759Z,6.53
2018-07-13T19:28:06.045Z,6.10
2018-07-13T19:30:34.591Z,6.42
2018-07-13T19:33:03.193Z,6.20
2018-07-13T19:35:31.583Z,6.78
2018-07-13T19:37:59.879Z,6.25
2018-07-13T19:40:28.642Z,6.53
2018-07-13T19:42:57.023Z,6.08
2018-07-13T19:45:25.305Z,6.28
2018-07-13T19:47:53.776Z,6.30
2018-07-13T19:50:22.079Z,5.72
2018-07-13T19:52:50.554Z,5.60
2018-07-13T19:55:19.148Z,6.00
2018-07-13T19:57:47.635Z,5.85
2018-07-13T20:00:15.931Z,5.72
2018-07-13T20:02:46.224Z,5.30
2018-07-13T20:05:14.583Z,5.65
2018-07-13T20:07:45.128Z,5.60
2018-07-13T20:10:13.523Z,5.15
2018-07-13T20:12:41.839Z,5.42
2018-07-13T20:15:10.266Z,5.08
2018-07-13T20:17:38.610Z,4.95
2018-07-13T20:20:07.914Z,5.35
2018-07-13T20:22:36.310Z,4.87
2018-07-13T20:25:05.002Z,5.50
2018-07-13T20:27:33.338Z,5.45
2018-07-13T20:30:02.574Z,5.10
2018-07-13T20:32:30.899Z,5.28
2018-07-13T20:34:59.196Z,4.75
2018-07-13T20:37:27.564Z,4.97
2018-07-13T20:39:55.999Z,5.15
2018-07-13T20:42:24.373Z,5.08
2018-07-13T20:44:53.057Z,4.75
2018-07-13T20:47:21.597Z,4.60
2018-07-13T20:49:49.894Z,5.00
2018-07-13T20:52:19.329Z,5.22
2018-07-13T20:54:47.696Z,4.22
2018-07-13T20:57:16.032Z,4.35
2018-07-13T20:59:44.685Z,4.42
2018-07-13T21:02:13.049Z,4.58
2018-07-13T21:04:41.363Z,4.20
2018-07-13T21:07:16.563Z,4.30
2018-07-13T21:09:44.902Z,4.45
2018-07-13T21:12:13.209Z,4.10
2018-07-13T21:14:41.915Z,4.22
2018-07-13T21:17:10.271Z,4.40
2018-07-13T21:19:38.639Z,4.03
2018-07-13T21:22:09.401Z,4.33
2018-07-13T21:24:37.737Z,3.80
2018-07-13T21:27:06.099Z,3.80
2018-07-13T21:29:34.481Z,4.35
2018-07-13T21:32:02.842Z,3.72
2018-07-13T21:34:31.144Z,4.25
2018-07-13T21:36:59.567Z,3.90
2018-07-13T21:39:27.874Z,3.85
2018-07-13T21:41:56.328Z,3.80
2018-07-13T21:44:25.529Z,3.95
2018-07-13T21:46:53.775Z,3.80
2018-07-13T21:49:22.285Z,3.72
2018-07-13T21:51:50.674Z,3.60
2018-07-13T21:54:18.975Z,3.60
2018-07-13T21:56:47.319Z,3.65
2018-07-13T21:59:15.915Z,3.72
2018-07-13T22:01:44.564Z,3.62
2018-07-13T22:04:12.811Z,3.50
2018-07-13T22:06:41.860Z,3.50
2018-07-13T22:09:14.333Z,3.62
2018-07-13T22:11:42.947Z,3.62
2018-07-13T22:14:11.380Z,3.90
2018-07-13T22:16:39.638Z,3.70
2018-07-13T22:19:08.098Z,3.42
2018-07-13T22:21:36.350Z,3.50
2018-07-13T22:24:04.780Z,3.25
2018-07-13T22:26:33.997Z,3.87
2018-07-13T22:29:02.278Z,3.45
2018-07-13T22:31:30.693Z,3.20
2018-07-13T22:33:59.566Z,3.65
2018-07-13T22:36:27.863Z,3.50
2018-07-13T22:38:56.287Z,3.10
2018-07-13T22:41:24.924Z,3.30
2018-07-13T22:43:53.362Z,3.77
2018-07-13T22:46:21.850Z,3.47
2018-07-13T22:48:50.811Z,3.40
2018-07-13T22:51:19.200Z,3.33
2018-07-13T22:53:47.455Z,2.95
2018-07-13T22:56:16.203Z,3.20
2018-07-13T22:58:44.497Z,3.12
2018-07-13T23:01:12.882Z,3.37
2018-07-13T23:03:41.355Z,3.37
2018-07-13T23:06:09.863Z,3.58
2018-07-13T23:08:40.058Z,3.45
2018-07-13T23:11:08.943Z,3.20
2018-07-13T23:13:37.202Z,3.58
2018-07-13T23:16:05.699Z,3.25
2018-07-13T23:18:34.103Z,3.42
2018-07-13T23:21:02.483Z,3.10
2018-07-13T23:23:30.840Z,3.20
2018-07-13T23:25:59.842Z,3.50
2018-07-13T23:28:28.167Z,3.25
2018-07-13T23:30:56.433Z,3.37
2018-07-13T23:33:24.776Z,3.58
2018-07-13T23:35:53.154Z,3.25
2018-07-13T23:38:21.434Z,3.27
2018-07-13T23:40:49.859Z,3.00
2018-07-13T23:43:18.122Z,2.83
2018-07-13T23:45:46.566Z,3.30
2018-07-13T23:48:15.549Z,3.40
2018-07-13T23:50:43.843Z,3.30
2018-07-13T23:53:12.143Z,3.10
2018-07-13T23:55:41.121Z,3.00
2018-07-13T23:58:09.408Z,3.50
